createdAt,value
2024-04-06T00:00:29.603Z,100216.27
2024-04-06T00:02:59.802Z,100213.96
2024-04-06T00:05:30.017Z,100213.82
2024-04-06T00:08:09.573Z,100216.12
2024-04-06T00:10:44.058Z,100213.88
2024-04-06T00:13:14.918Z,100208.70
2024-04-06T00:15:45.346Z,100213.74
2024-04-06T00:18:15.517Z,100216.16
2024-04-06T00:20:45.686Z,100218.18
2024-04-06T00:23:15.940Z,100219.68
2024-04-06T00:25:46.134Z,100215.75
2024-04-06T00:28:16.333Z,100220.77
2024-04-06T00:30:46.452Z,100217.65
2024-04-06T00:33:16.641Z,100217.25
2024-04-06T00:35:46.840Z,100222.52
2024-04-06T00:38:16.935Z,100220.77
2024-04-06T00:40:47.250Z,100217.58
2024-04-06T00:43:17.455Z,100225.45
2024-04-06T00:45:48.010Z,100229.98
2024-04-06T00:48:18.204Z,100226.54
2024-04-06T00:50:48.701Z,100224.04
2024-04-06T00:53:18.840Z,100227.29
2024-04-06T00:55:49.260Z,100231.55
2024-04-06T00:58:20.819Z,100237.84
2024-04-06T01:00:51.343Z,100237.45
2024-04-06T01:03:21.662Z,100241.83
2024-04-06T01:05:52.275Z,100241.98
2024-04-06T01:08:22.826Z,100247.11
2024-04-06T01:10:53.239Z,100245.48
2024-04-06T01:13:23.569Z,100248.89
2024-04-06T01:15:54.234Z,100244.24
2024-04-06T01:18:24.542Z,100253.30
2024-04-06T01:20:58.265Z,100256.27
2024-04-06T01:23:28.498Z,100259.38
2024-04-06T01:26:00.358Z,100247.84
2024-04-06T01:28:31.527Z,100248.00
2024-04-06T01:31:01.700Z,100249.67
2024-04-06T01:33:32.259Z,100251.98
2024-04-06T01:36:02.531Z,100256.06
2024-04-06T01:38:32.763Z,100252.31
2024-04-06T01:41:02.992Z,100255.04
2024-04-06T01:43:33.205Z,100264.36
2024-04-06T01:46:03.377Z,100272.45
2024-04-06T01:48:33.540Z,100280.00
2024-04-06T01:51:04.001Z,100279.85
2024-04-06T01:53:34.296Z,100277.42
2024-04-06T01:56:04.970Z,100267.13
2024-04-06T01:58:35.188Z,100273.88
2024-04-06T02:01:05.848Z,100270.50
2024-04-06T02:03:36.580Z,100274.56
2024-04-06T02:06:09.858Z,100277.45
2024-04-06T02:08:40.443Z,100281.33
2024-04-06T02:11:10.652Z,100277.38
2024-04-06T02:13:41.255Z,100274.50
2024-04-06T02:16:11.671Z,100278.91
2024-04-06T02:18:43.806Z,100285.52
2024-04-06T02:21:13.972Z,100280.98
2024-04-06T02:23:44.228Z,100279.79
2024-04-06T02:26:14.479Z,100283.52
2024-04-06T02:28:44.678Z,100283.73
2024-04-06T02:31:15.074Z,100288.57
2024-04-06T02:33:45.369Z,100285.84
2024-04-06T02:36:15.580Z,100295.41
2024-04-06T02:38:45.753Z,100295.02
2024-04-06T02:41:15.968Z,100295.37
2024-04-06T02:43:46.169Z,100296.52
2024-04-06T02:46:16.325Z,100297.84
2024-04-06T02:48:48.618Z,100296.81
2024-04-06T02:51:19.221Z,100298.59
2024-04-06T02:53:50.388Z,100299.33
2024-04-06T02:56:20.622Z,100308.02
2024-04-06T02:58:50.746Z,100309.66
2024-04-06T03:01:21.059Z,100301.98
2024-04-06T03:03:51.290Z,100299.06
2024-04-06T03:06:21.507Z,100298.05
2024-04-06T03:08:51.725Z,100296.42
2024-04-06T03:11:21.979Z,100298.91
2024-04-06T03:13:52.514Z,100303.67
2024-04-06T03:16:23.050Z,100302.21
2024-04-06T03:18:53.250Z,100312.14
2024-04-06T03:21:23.423Z,100314.50
2024-04-06T03:23:53.647Z,100308.73
2024-04-06T03:26:24.115Z,100311.05
2024-04-06T03:28:54.344Z,100304.52
2024-04-06T03:31:24.669Z,100307.80
2024-04-06T03:33:55.688Z,100309.71
2024-04-06T03:36:27.912Z,100309.34
2024-04-06T03:38:58.372Z,100312.82
2024-04-06T03:41:28.716Z,100313.08
2024-04-06T03:43:59.036Z,100312.88
2024-04-06T03:46:31.773Z,100314.63
2024-04-06T03:49:01.919Z,100317.15
2024-04-06T03:51:32.199Z,100317.77
2024-04-06T03:54:02.361Z,100316.92
2024-04-06T03:56:32.806Z,100313.23
2024-04-06T03:59:03.027Z,100310.01
2024-04-06T04:01:33.230Z,100309.79
2024-04-06T04:04:03.464Z,100307.56
2024-04-06T04:06:33.677Z,100304.48
2024-04-06T04:09:03.909Z,100302.04
2024-04-06T04:11:34.241Z,100301.31
2024-04-06T04:14:04.641Z,100299.42
2024-04-06T04:16:35.194Z,100305.66
2024-04-06T04:19:05.496Z,100304.70
2024-04-06T04:21:35.811Z,100299.95
2024-04-06T04:24:06.861Z,100286.84
2024-04-06T04:26:37.089Z,100284.98
2024-04-06T04:29:07.272Z,100290.54
2024-04-06T04:31:37.537Z,100288.45
2024-04-06T04:34:07.807Z,100298.34
2024-04-06T04:36:38.043Z,100310.00
2024-04-06T04:39:08.172Z,100310.77
2024-04-06T04:41:38.636Z,100316.05
2024-04-06T04:44:24.784Z,100324.45
2024-04-06T04:46:59.084Z,100323.02
2024-04-06T04:49:29.688Z,100325.55
2024-04-06T04:51:59.928Z,100327.96
2024-04-06T04:54:30.443Z,100335.95
2024-04-06T04:57:00.991Z,100341.53
2024-04-06T04:59:31.466Z,100345.70
2024-04-06T05:02:01.819Z,100349.72
2024-04-06T05:04:32.014Z,100353.07
2024-04-06T05:07:02.251Z,100348.51
2024-04-06T05:09:32.698Z,100353.48
2024-04-06T05:12:03.756Z,100354.53
2024-04-06T05:14:34.068Z,100356.69
2024-04-06T05:17:04.611Z,100350.94
2024-04-06T05:19:35.948Z,100353.42
2024-04-06T05:22:07.263Z,100350.72
2024-04-06T05:24:37.413Z,100351.39
2024-04-06T05:27:08.170Z,100358.40
2024-04-06T05:29:38.624Z,100368.20
2024-04-06T05:32:09.989Z,100364.82
2024-04-06T05:34:40.432Z,100372.89
2024-04-06T05:37:10.853Z,100381.45
2024-04-06T05:39:41.196Z,100391.77
2024-04-06T05:42:11.468Z,100396.83
2024-04-06T05:44:41.686Z,100399.63
2024-04-06T05:47:12.125Z,100408.52
2024-04-06T05:49:42.322Z,100403.88
2024-04-06T05:52:12.731Z,100406.45
2024-04-06T05:54:43.353Z,100401.73
2024-04-06T05:57:13.968Z,100404.15
2024-04-06T05:59:44.201Z,100404.40
2024-04-06T06:02:14.635Z,100411.91
2024-04-06T06:04:47.621Z,100413.92
2024-04-06T06:07:18.007Z,100414.82
2024-04-06T06:09:48.763Z,100418.70
2024-04-06T06:12:20.320Z,100416.70
2024-04-06T06:14:51.355Z,100414.07
2024-04-06T06:17:22.446Z,100421.44
2024-04-06T06:19:52.726Z,100422.67
2024-04-06T06:22:23.270Z,100426.25
2024-04-06T06:24:53.654Z,100435.34
2024-04-06T06:27:23.921Z,100433.95
2024-04-06T06:29:54.578Z,100438.35
2024-04-06T06:32:25.096Z,100442.56
2024-04-06T06:34:55.271Z,100443.56
2024-04-06T06:42:32.095Z,100452.33
2024-04-06T06:45:06.841Z,100448.64
2024-04-06T06:47:37.116Z,100438.52
2024-04-06T06:50:09.637Z,100430.23
2024-04-06T06:52:39.762Z,100425.42
2024-04-06T06:55:10.461Z,100412.00
2024-04-06T06:57:41.166Z,100408.77
2024-04-06T07:02:46.655Z,100398.97
2024-04-06T07:05:17.277Z,100397.79
2024-04-06T07:07:56.217Z,100394.29
2024-04-06T07:10:26.466Z,100397.84
2024-04-06T07:12:57.456Z,100396.55
2024-04-06T07:15:27.629Z,100401.41
2024-04-06T07:17:58.621Z,100403.52
2024-04-06T07:20:29.091Z,100404.93
2024-04-06T07:22:59.305Z,100401.27
2024-04-06T07:25:29.844Z,100390.45
2024-04-06T07:28:00.079Z,100390.67
2024-04-06T07:30:30.412Z,100392.41
2024-04-06T07:33:00.765Z,100388.46
2024-04-06T07:35:31.040Z,100390.46
2024-04-06T07:38:01.252Z,100396.77
2024-04-06T07:40:31.728Z,100394.61
2024-04-06T07:43:03.662Z,100396.48
2024-04-06T07:45:34.196Z,100399.79
2024-04-06T07:48:04.743Z,100400.94
2024-04-06T07:50:35.514Z,100404.59
2024-04-06T07:53:06.015Z,100406.40
2024-04-06T07:55:36.401Z,100400.79
2024-04-06T07:58:06.874Z,100399.86
2024-04-06T08:00:38.009Z,100402.86
2024-04-06T08:03:09.118Z,100400.15
2024-04-06T08:05:39.380Z,100400.04
2024-04-06T08:08:10.087Z,100400.83
2024-04-06T08:10:43.246Z,100406.08
2024-04-06T08:13:15.064Z,100403.64
2024-04-06T08:15:46.495Z,100398.60
2024-04-06T08:18:16.803Z,100391.21
2024-04-06T08:20:48.244Z,100389.30
2024-04-06T08:23:19.356Z,100392.69
2024-04-06T08:25:53.955Z,100395.91
2024-04-06T08:28:24.300Z,100397.24
2024-04-06T08:30:54.528Z,100391.11
2024-04-06T08:33:24.807Z,100383.86
2024-04-06T08:36:02.185Z,100378.35
2024-04-06T08:38:32.321Z,100381.13
2024-04-06T08:41:11.245Z,100387.84
2024-04-06T08:43:46.018Z,100393.04
2024-04-06T08:46:18.209Z,100395.94
2024-04-06T08:48:50.554Z,100396.21
2024-04-06T08:51:24.186Z,100401.83
2024-04-06T08:53:54.743Z,100397.19
2024-04-06T08:56:25.400Z,100393.54
2024-04-06T08:58:55.709Z,100399.94
2024-04-06T09:01:25.963Z,100396.74
2024-04-06T09:03:56.279Z,100398.80
2024-04-06T09:06:26.672Z,100395.55
2024-04-06T09:08:56.925Z,100394.45
2024-04-06T09:11:27.177Z,100392.88
2024-04-06T09:14:03.573Z,100390.00
2024-04-06T09:16:34.846Z,100386.10
2024-04-06T09:19:05.270Z,100387.60
2024-04-06T09:21:36.370Z,100389.67
2024-04-06T09:24:07.859Z,100384.77
2024-04-06T09:26:38.152Z,100378.45
2024-04-06T09:29:08.446Z,100376.91
2024-04-06T09:31:48.633Z,100376.98
2024-04-06T09:34:18.805Z,100377.86
2024-04-06T09:36:54.765Z,100372.89
2024-04-06T09:39:25.474Z,100374.17
2024-04-06T09:41:56.588Z,100374.69
2024-04-06T09:44:28.772Z,100365.69
2024-04-06T09:46:59.019Z,100364.09
2024-04-06T09:49:30.003Z,100363.20
2024-04-06T09:52:01.309Z,100361.04
2024-04-06T09:54:32.887Z,100364.55
2024-04-06T09:57:03.443Z,100361.29
2024-04-06T09:59:33.920Z,100362.23
2024-04-06T10:02:05.368Z,100362.34
2024-04-06T10:04:39.650Z,100362.33
2024-04-06T10:07:09.827Z,100367.14
2024-04-06T10:09:40.036Z,100372.44
2024-04-06T10:12:12.687Z,100370.09
2024-04-06T10:14:49.197Z,100368.10
2024-04-06T10:17:19.491Z,100364.89
2024-04-06T10:19:50.122Z,100361.98
2024-04-06T10:22:27.104Z,100357.61
2024-04-06T10:25:03.450Z,100364.49
2024-04-06T10:27:40.913Z,100363.97
2024-04-06T10:30:12.102Z,100362.85
2024-04-06T10:32:42.824Z,100359.95
2024-04-06T10:35:13.940Z,100358.29
2024-04-06T10:37:44.191Z,100354.39
2024-04-06T10:40:15.115Z,100352.57
2024-04-06T10:42:45.401Z,100356.73
2024-04-06T10:45:17.558Z,100353.78
2024-04-06T10:47:47.929Z,100354.91
2024-04-06T10:50:18.242Z,100351.19
2024-04-06T10:52:49.655Z,100347.90
2024-04-06T10:55:21.927Z,100336.30
2024-04-06T10:57:52.396Z,100341.35
2024-04-06T11:00:22.714Z,100340.84
2024-04-06T11:02:52.929Z,100338.63
2024-04-06T11:05:24.027Z,100337.02
2024-04-06T11:07:54.260Z,100334.98
2024-04-06T11:10:25.309Z,100340.77
2024-04-06T11:12:57.861Z,100333.80
2024-04-06T11:15:29.050Z,100333.53
2024-04-06T11:18:00.380Z,100330.40
2024-04-06T11:20:34.642Z,100333.25
2024-04-06T11:23:05.429Z,100337.08
2024-04-06T11:25:40.784Z,100335.56
2024-04-06T11:28:11.083Z,100331.57
2024-04-06T11:30:42.727Z,100326.63
2024-04-06T11:33:12.907Z,100330.25
2024-04-06T11:35:43.188Z,100334.88
2024-04-06T11:38:13.514Z,100334.11
2024-04-06T11:40:48.166Z,100332.32
2024-04-06T11:43:18.557Z,100329.09
2024-04-06T11:45:49.260Z,100319.26
2024-04-06T11:48:19.727Z,100318.98
2024-04-06T11:50:50.056Z,100315.52
2024-04-06T11:53:20.294Z,100323.56
2024-04-06T11:55:50.643Z,100327.00
2024-04-06T11:58:20.903Z,100332.78
2024-04-06T12:00:51.250Z,100329.35
2024-04-06T12:03:21.751Z,100327.74
2024-04-06T12:05:54.499Z,100324.55
2024-04-06T12:08:26.161Z,100326.38
2024-04-06T12:10:56.602Z,100320.95
2024-04-06T12:13:26.781Z,100326.63
2024-04-06T12:15:57.063Z,100324.95
2024-04-06T12:18:28.039Z,100321.94
2024-04-06T12:20:58.264Z,100325.82
2024-04-06T12:23:29.124Z,100324.86
2024-04-06T12:25:59.870Z,100316.52
2024-04-06T12:28:30.398Z,100315.42
2024-04-06T12:31:03.493Z,100314.66
2024-04-06T12:33:32.456Z,100305.60
2024-04-06T12:36:03.080Z,100309.66
2024-04-06T12:38:33.658Z,100307.69
2024-04-06T12:41:04.107Z,100310.77
2024-04-06T12:43:34.372Z,100310.38
2024-04-06T12:46:05.253Z,100307.23
2024-04-06T12:48:36.324Z,100303.81
2024-04-06T12:51:09.984Z,100301.15
2024-04-06T12:53:41.127Z,100306.19
2024-04-06T12:56:11.685Z,100301.38
2024-04-06T12:58:42.962Z,100301.92
2024-04-06T13:01:13.719Z,100300.77
2024-04-06T13:03:52.714Z,100296.25
2024-04-06T13:06:30.280Z,100295.31
2024-04-06T13:09:00.749Z,100292.88
2024-04-06T13:11:31.005Z,100292.40
2024-04-06T13:14:01.249Z,100289.87
2024-04-06T13:16:31.579Z,100288.73
2024-04-06T13:19:01.818Z,100282.70
2024-04-06T13:21:32.017Z,100286.23
2024-04-06T13:24:02.700Z,100285.60
2024-04-06T13:26:32.921Z,100291.87
2024-04-06T13:29:05.086Z,100289.88
2024-04-06T13:31:35.717Z,100287.20
2024-04-06T13:34:07.572Z,100282.63
2024-04-06T13:36:37.830Z,100275.46
2024-04-06T13:39:08.916Z,100272.73
2024-04-06T13:41:39.191Z,100266.05
2024-04-06T13:44:09.477Z,100263.48
2024-04-06T13:46:39.749Z,100255.27
2024-04-06T13:49:11.850Z,100250.78
2024-04-06T13:51:43.107Z,100247.10
2024-04-06T13:54:13.430Z,100243.87
2024-04-06T13:56:46.082Z,100236.42
2024-04-06T13:59:16.608Z,100232.55
2024-04-06T14:01:47.322Z,100229.77
2024-04-06T14:04:18.770Z,100222.44
2024-04-06T14:06:49.234Z,100227.00
2024-04-06T14:09:20.000Z,100222.89
2024-04-06T14:11:50.288Z,100222.05
2024-04-06T14:14:23.247Z,100217.16
2024-04-06T14:16:55.080Z,100218.68
2024-04-06T14:19:27.071Z,100220.70
2024-04-06T14:21:58.133Z,100220.30
2024-04-06T14:24:28.469Z,100226.67
2024-04-06T14:26:59.544Z,100229.64
2024-04-06T14:29:29.875Z,100232.79
2024-04-06T14:32:00.394Z,100231.13
2024-04-06T14:34:30.603Z,100223.02
2024-04-06T14:37:00.902Z,100219.05
2024-04-06T14:39:31.164Z,100217.10
2024-04-06T14:42:01.472Z,100218.55
2024-04-06T14:44:31.889Z,100213.92
2024-04-06T14:47:02.548Z,100209.27
2024-04-06T14:49:32.763Z,100212.27
2024-04-06T14:52:04.472Z,100208.80
2024-04-06T14:54:34.816Z,100206.01
2024-04-06T14:57:05.973Z,100207.20
2024-04-06T14:59:36.216Z,100205.37
2024-04-06T15:02:07.423Z,100208.73
2024-04-06T15:04:38.134Z,100206.91
2024-04-06T15:07:09.235Z,100208.12
2024-04-06T15:09:40.687Z,100212.72
2024-04-06T15:12:11.792Z,100211.05
2024-04-06T15:14:42.066Z,100212.56
2024-04-06T15:17:12.569Z,100205.34
2024-04-06T15:19:44.011Z,100199.42
2024-04-06T15:22:16.881Z,100193.64
2024-04-06T15:24:47.848Z,100197.23
2024-04-06T15:27:18.037Z,100200.58
2024-04-06T15:29:48.285Z,100200.80
2024-04-06T15:32:20.353Z,100200.00
2024-04-06T15:34:50.613Z,100192.39
2024-04-06T15:37:21.772Z,100189.89
2024-04-06T15:39:51.999Z,100191.41
2024-04-06T15:42:24.432Z,100192.25
2024-04-06T15:44:54.694Z,100184.38
2024-04-06T15:47:25.081Z,100182.71
2024-04-06T15:49:55.247Z,100180.00
2024-04-06T15:52:26.270Z,100170.72
2024-04-06T15:54:56.677Z,100169.03
2024-04-06T15:57:27.013Z,100171.44
2024-04-06T15:59:57.679Z,100171.36
2024-04-06T16:02:28.033Z,100170.11
2024-04-06T16:04:58.512Z,100165.80
2024-04-06T16:07:28.747Z,100161.31
2024-04-06T16:09:59.068Z,100153.23
2024-04-06T16:12:29.500Z,100151.51
2024-04-06T16:14:59.795Z,100152.63
2024-04-06T16:17:30.058Z,100148.84
2024-04-06T16:20:00.394Z,100144.41
2024-04-06T16:22:30.820Z,100143.48
2024-04-06T16:25:01.174Z,100145.11
2024-04-06T16:27:31.487Z,100140.94
2024-04-06T16:30:01.876Z,100144.74
2024-04-06T16:32:32.104Z,100147.39
2024-04-06T16:35:02.302Z,100148.39
2024-04-06T16:37:32.556Z,100149.48
2024-04-06T16:40:05.445Z,100148.71
2024-04-06T16:42:35.830Z,100149.23
2024-04-06T16:45:07.562Z,100143.92
2024-04-06T16:47:37.969Z,100141.88
2024-04-06T16:50:09.099Z,100148.41
2024-04-06T16:52:41.410Z,100145.63
2024-04-06T16:55:11.971Z,100148.42
2024-04-06T16:57:43.334Z,100145.98
2024-04-06T17:00:16.296Z,100145.34
2024-04-06T17:02:47.630Z,100148.67
2024-04-06T17:05:22.176Z,100153.98
2024-04-06T17:07:52.644Z,100153.60
2024-04-06T17:10:23.256Z,100151.27
2024-04-06T17:12:53.794Z,100160.99
2024-04-06T17:15:24.140Z,100168.54
2024-04-06T17:17:54.388Z,100170.90
2024-04-06T17:20:26.301Z,100181.84
2024-04-06T17:22:56.918Z,100190.52
2024-04-06T17:25:27.231Z,100193.16
2024-04-06T17:27:58.368Z,100193.66
2024-04-06T17:30:28.654Z,100194.82
2024-04-06T17:32:59.390Z,100199.52
2024-04-06T17:35:30.402Z,100207.40
2024-04-06T17:38:01.860Z,100205.88
2024-04-06T17:40:32.245Z,100201.08
2024-04-06T17:43:02.578Z,100199.48
2024-04-06T17:45:33.009Z,100197.45
2024-04-06T17:48:03.369Z,100197.52
2024-04-06T17:50:33.858Z,100197.34
2024-04-06T17:53:04.286Z,100195.08
2024-04-06T17:55:34.535Z,100199.00
2024-04-06T17:58:05.468Z,100198.99
2024-04-06T18:00:35.806Z,100198.70
2024-04-06T18:03:07.962Z,100196.05
2024-04-06T18:05:38.266Z,100196.83
2024-04-06T18:08:09.501Z,100199.27
2024-04-06T18:10:40.844Z,100200.17
2024-04-06T18:13:13.534Z,100204.52
2024-04-06T18:15:44.684Z,100210.12
2024-04-06T18:18:15.084Z,100213.77
2024-04-06T18:20:47.043Z,100214.63
2024-04-06T18:23:18.031Z,100212.50
2024-04-06T18:25:48.295Z,100211.64
2024-04-06T18:28:18.855Z,100215.52
2024-04-06T18:30:49.166Z,100222.77
2024-04-06T18:33:22.691Z,100221.10
2024-04-06T18:35:54.647Z,100224.74
2024-04-06T18:38:25.806Z,100226.40
2024-04-06T18:40:56.330Z,100226.77
2024-04-06T18:43:27.939Z,100228.55
2024-04-06T18:45:58.454Z,100233.89
2024-04-06T18:48:29.361Z,100241.55
2024-04-06T18:50:59.728Z,100245.66
2024-04-06T18:53:30.782Z,100248.67
2024-04-06T18:56:02.164Z,100257.46
2024-04-06T18:58:32.384Z,100260.06
2024-04-06T19:01:03.172Z,100256.70
2024-04-06T19:03:33.948Z,100253.30
2024-04-06T19:06:05.000Z,100248.40
2024-04-06T19:08:35.846Z,100244.00
2024-04-06T19:11:06.690Z,100238.88
2024-04-06T19:13:37.027Z,100227.87
2024-04-06T19:16:08.667Z,100223.30
2024-04-06T19:18:38.973Z,100222.91
2024-04-06T19:21:09.299Z,100216.38
2024-04-06T19:23:39.907Z,100220.86
2024-04-06T19:26:10.306Z,100224.39
2024-04-06T19:28:40.634Z,100227.92
2024-04-06T19:31:12.241Z,100225.31
2024-04-06T19:33:42.641Z,100228.00
2024-04-06T19:36:16.056Z,100237.30
2024-04-06T19:38:44.874Z,100237.14
2024-04-06T19:41:15.448Z,100243.17
2024-04-06T19:43:45.630Z,100244.91
2024-04-06T19:46:16.197Z,100246.06
2024-04-06T19:48:46.464Z,100252.19
2024-04-06T19:51:16.761Z,100257.83
2024-04-06T19:53:47.320Z,100258.29
2024-04-06T19:56:17.542Z,100260.69
2024-04-06T19:58:50.236Z,100254.91
2024-04-06T20:01:20.986Z,100264.06
2024-04-06T20:03:51.266Z,100274.67
2024-04-06T20:06:21.534Z,100274.36
2024-04-06T20:09:06.501Z,100273.90
2024-04-06T20:11:37.073Z,100264.89
2024-04-06T20:14:07.285Z,100263.95
2024-04-06T20:16:37.600Z,100263.52
2024-04-06T20:19:07.984Z,100269.41
2024-04-06T20:21:38.794Z,100273.85
2024-04-06T20:24:27.732Z,100273.88
2024-04-06T20:26:58.126Z,100276.08
2024-04-06T20:29:28.255Z,100276.57
2024-04-06T20:31:59.301Z,100276.58
2024-04-06T20:34:30.697Z,100284.23
2024-04-06T20:37:07.582Z,100284.58
2024-04-06T20:39:38.467Z,100284.39
2024-04-06T20:42:08.989Z,100282.82
2024-04-06T20:44:39.262Z,100280.46
2024-04-06T20:47:09.525Z,100281.89
2024-04-06T20:49:39.796Z,100283.00
2024-04-06T20:52:12.593Z,100282.22
2024-04-06T20:54:42.768Z,100279.23
2024-04-06T20:57:12.938Z,100280.10
2024-04-06T20:59:43.134Z,100282.43
2024-04-06T21:02:13.358Z,100281.80
2024-04-06T21:04:43.536Z,100276.39
2024-04-06T21:07:13.820Z,100276.01
2024-04-06T21:09:44.421Z,100272.80
2024-04-06T21:12:14.978Z,100270.36
2024-04-06T21:14:45.648Z,100269.08
2024-04-06T21:17:15.971Z,100266.56
2024-04-06T21:19:46.397Z,100260.53
2024-04-06T21:22:16.658Z,100250.47
2024-04-06T21:24:46.900Z,100247.67
2024-04-06T21:27:17.244Z,100249.98
2024-04-06T21:29:50.268Z,100254.29
2024-04-06T21:32:22.408Z,100251.93
2024-04-06T21:34:52.526Z,100257.23
2024-04-06T21:37:22.667Z,100261.51
2024-04-06T21:39:53.463Z,100252.77
2024-04-06T21:42:23.703Z,100252.02
2024-04-06T21:44:53.790Z,100246.05
2024-04-06T21:47:24.268Z,100250.77
2024-04-06T21:49:54.503Z,100250.13
2024-04-06T21:52:24.704Z,100250.90
2024-04-06T21:54:54.867Z,100249.36
2024-04-06T21:57:25.537Z,100250.36
2024-04-06T22:00:08.087Z,100251.68
2024-04-06T22:02:43.388Z,100254.56
2024-04-06T22:05:14.116Z,100259.07
2024-04-06T22:07:44.353Z,100255.77
2024-04-06T22:10:14.639Z,100253.66
2024-04-06T22:12:44.886Z,100257.11
2024-04-06T22:15:15.514Z,100262.51
2024-04-06T22:17:45.786Z,100268.50
2024-04-06T22:20:16.078Z,100266.73
2024-04-06T22:22:46.508Z,100267.13
2024-04-06T22:25:16.736Z,100262.79
2024-04-06T22:27:47.044Z,100269.33
2024-04-06T22:30:17.564Z,100274.61
2024-04-06T22:32:47.689Z,100273.46
2024-04-06T22:35:18.200Z,100271.85
2024-04-06T22:37:48.359Z,100269.39
2024-04-06T22:40:22.222Z,100270.71
2024-04-06T22:42:52.377Z,100271.46
2024-04-06T22:45:22.506Z,100271.65
2024-04-06T22:47:52.693Z,100269.59
2024-04-06T22:50:23.209Z,100270.39
2024-04-06T22:52:53.433Z,100274.98
2024-04-06T22:55:23.670Z,100274.19
2024-04-06T22:57:53.813Z,100273.39
2024-04-06T23:00:24.343Z,100276.05
2024-04-06T23:02:54.539Z,100273.38
2024-04-06T23:05:24.760Z,100273.73
2024-04-06T23:07:54.966Z,100273.20
2024-04-06T23:10:25.235Z,100273.34
2024-04-06T23:12:55.543Z,100277.30
2024-04-06T23:15:25.669Z,100277.22
2024-04-06T23:17:55.871Z,100273.36
2024-04-06T23:20:26.930Z,100276.03
2024-04-06T23:22:57.218Z,100269.44
2024-04-06T23:25:27.748Z,100272.80
2024-04-06T23:27:57.938Z,100273.21
2024-04-06T23:30:28.124Z,100270.55
2024-04-06T23:32:58.421Z,100273.04
2024-04-06T23:35:29.147Z,100275.77
2024-04-06T23:37:59.384Z,100271.02
2024-04-06T23:40:29.635Z,100267.70
2024-04-06T23:43:00.332Z,100266.45
2024-04-06T23:45:30.482Z,100259.91
2024-04-06T23:48:00.679Z,100257.66
2024-04-06T23:50:31.339Z,100255.84
2024-04-06T23:53:02.083Z,100255.16
2024-04-06T23:55:32.487Z,100255.33
2024-04-06T23:58:03.511Z,100259.86
